sensor_id;sensor_type;location;lat;lon;timestamp;temperature;humidity
67555;HTU21D;54385;53.516;49.456;2023-03-19T00:01:32;0.08;62.52
67555;HTU21D;54385;53.516;49.456;2023-03-19T00:03:58;0.07;62.92
67555;HTU21D;54385;53.516;49.456;2023-03-19T00:06:24;0.03;62.60
67555;HTU21D;54385;53.516;49.456;2023-03-19T00:08:51;0.08;62.61
67555;HTU21D;54385;53.516;49.456;2023-03-19T00:11:17;0.07;62.58
67555;HTU21D;54385;53.516;49.456;2023-03-19T00:13:44;0.04;62.50
67555;HTU21D;54385;53.516;49.456;2023-03-19T00:16:10;0.02;63.13
67555;HTU21D;54385;53.516;49.456;2023-03-19T00:18:36;-0.05;62.95
67555;HTU21D;54385;53.516;49.456;2023-03-19T00:21:03;-0.02;62.79
67555;HTU21D;54385;53.516;49.456;2023-03-19T00:23:30;0.01;61.27
67555;HTU21D;54385;53.516;49.456;2023-03-19T00:25:56;-0.02;61.72
67555;HTU21D;54385;53.516;49.456;2023-03-19T00:28:23;-0.03;62.05
67555;HTU21D;54385;53.516;49.456;2023-03-19T00:30:49;-0.05;62.13
67555;HTU21D;54385;53.516;49.456;2023-03-19T00:33:16;-0.07;62.46
67555;HTU21D;54385;53.516;49.456;2023-03-19T00:35:42;-0.09;61.70
67555;HTU21D;54385;53.516;49.456;2023-03-19T00:38:08;-0.12;61.24
67555;HTU21D;54385;53.516;49.456;2023-03-19T00:40:35;-0.12;61.41
67555;HTU21D;54385;53.516;49.456;2023-03-19T00:43:02;-0.05;61.70
67555;HTU21D;54385;53.516;49.456;2023-03-19T00:45:28;-0.12;62.15
67555;HTU21D;54385;53.516;49.456;2023-03-19T00:47:58;-0.14;61.43
67555;HTU21D;54385;53.516;49.456;2023-03-19T00:50:24;-0.14;61.55
67555;HTU21D;54385;53.516;49.456;2023-03-19T00:52:51;-0.13;61.88
67555;HTU21D;54385;53.516;49.456;2023-03-19T00:55:18;-0.14;61.41
67555;HTU21D;54385;53.516;49.456;2023-03-19T00:57:44;-0.20;61.70
67555;HTU21D;54385;53.516;49.456;2023-03-19T01:00:13;-0.30;61.46
67555;HTU21D;54385;53.516;49.456;2023-03-19T01:02:39;-0.31;62.26
67555;HTU21D;54385;53.516;49.456;2023-03-19T01:05:06;-0.28;60.76
67555;HTU21D;54385;53.516;49.456;2023-03-19T01:07:33;-0.23;61.74
67555;HTU21D;54385;53.516;49.456;2023-03-19T01:09:59;-0.25;61.20
67555;HTU21D;54385;53.516;49.456;2023-03-19T01:12:25;-0.28;61.35
67555;HTU21D;54385;53.516;49.456;2023-03-19T01:14:52;-0.28;61.03
67555;HTU21D;54385;53.516;49.456;2023-03-19T01:17:18;-0.32;61.90
67555;HTU21D;54385;53.516;49.456;2023-03-19T01:19:44;-0.37;61.77
67555;HTU21D;54385;53.516;49.456;2023-03-19T01:22:11;-0.28;62.21
67555;HTU21D;54385;53.516;49.456;2023-03-19T01:24:39;-0.27;61.21
67555;HTU21D;54385;53.516;49.456;2023-03-19T01:27:05;-0.27;61.73
67555;HTU21D;54385;53.516;49.456;2023-03-19T01:29:32;-0.28;61.12
67555;HTU21D;54385;53.516;49.456;2023-03-19T01:31:59;-0.27;61.89
67555;HTU21D;54385;53.516;49.456;2023-03-19T01:34:26;-0.29;61.34
67555;HTU21D;54385;53.516;49.456;2023-03-19T01:36:53;-0.32;62.40
67555;HTU21D;54385;53.516;49.456;2023-03-19T01:39:20;-0.36;61.92
67555;HTU21D;54385;53.516;49.456;2023-03-19T01:41:47;-0.35;61.99
67555;HTU21D;54385;53.516;49.456;2023-03-19T01:46:49;-0.53;62.05
67555;HTU21D;54385;53.516;49.456;2023-03-19T01:49:17;-0.52;62.20
67555;HTU21D;54385;53.516;49.456;2023-03-19T01:51:46;-0.53;62.52
67555;HTU21D;54385;53.516;49.456;2023-03-19T01:54:17;-0.54;61.64
67555;HTU21D;54385;53.516;49.456;2023-03-19T01:56:45;-0.53;62.81
67555;HTU21D;54385;53.516;49.456;2023-03-19T01:59:34;-0.49;62.64
67555;HTU21D;54385;53.516;49.456;2023-03-19T02:02:05;-0.55;62.50
67555;HTU21D;54385;53.516;49.456;2023-03-19T02:04:38;-0.56;62.66
67555;HTU21D;54385;53.516;49.456;2023-03-19T02:07:07;-0.57;63.16
67555;HTU21D;54385;53.516;49.456;2023-03-19T02:09:35;-0.49;62.54
67555;HTU21D;54385;53.516;49.456;2023-03-19T02:12:02;-0.50;62.99
67555;HTU21D;54385;53.516;49.456;2023-03-19T02:14:29;-0.53;62.89
67555;HTU21D;54385;53.516;49.456;2023-03-19T02:16:56;-0.55;62.96
67555;HTU21D;54385;53.516;49.456;2023-03-19T02:22:03;-0.59;62.86
67555;HTU21D;54385;53.516;49.456;2023-03-19T02:24:36;-0.62;62.40
67555;HTU21D;54385;53.516;49.456;2023-03-19T02:27:06;-0.62;62.85
67555;HTU21D;54385;53.516;49.456;2023-03-19T02:29:34;-0.57;62.39
67555;HTU21D;54385;53.516;49.456;2023-03-19T02:32:00;-0.51;62.63
67555;HTU21D;54385;53.516;49.456;2023-03-19T02:34:33;-0.51;62.44
67555;HTU21D;54385;53.516;49.456;2023-03-19T02:37:05;-0.46;61.79
67555;HTU21D;54385;53.516;49.456;2023-03-19T02:42:37;-0.46;62.27
67555;HTU21D;54385;53.516;49.456;2023-03-19T02:45:04;-0.50;62.53
67555;HTU21D;54385;53.516;49.456;2023-03-19T02:47:32;-0.47;61.77
67555;HTU21D;54385;53.516;49.456;2023-03-19T02:49:58;-0.54;61.05
67555;HTU21D;54385;53.516;49.456;2023-03-19T02:52:25;-0.50;61.93
67555;HTU21D;54385;53.516;49.456;2023-03-19T02:54:51;-0.50;61.65
67555;HTU21D;54385;53.516;49.456;2023-03-19T02:57:18;-0.42;61.50
67555;HTU21D;54385;53.516;49.456;2023-03-19T02:59:44;-0.40;61.31
67555;HTU21D;54385;53.516;49.456;2023-03-19T03:02:11;-0.34;61.66
67555;HTU21D;54385;53.516;49.456;2023-03-19T03:04:37;-0.29;61.88
67555;HTU21D;54385;53.516;49.456;2023-03-19T03:07:04;-0.31;61.29
67555;HTU21D;54385;53.516;49.456;2023-03-19T03:09:31;-0.22;61.16
67555;HTU21D;54385;53.516;49.456;2023-03-19T03:11:57;-0.14;60.51
67555;HTU21D;54385;53.516;49.456;2023-03-19T03:14:23;-0.13;60.98
67555;HTU21D;54385;53.516;49.456;2023-03-19T03:16:50;-0.15;60.90
67555;HTU21D;54385;53.516;49.456;2023-03-19T03:19:16;-0.15;60.51
67555;HTU21D;54385;53.516;49.456;2023-03-19T03:21:42;-0.25;60.87
67555;HTU21D;54385;53.516;49.456;2023-03-19T03:24:09;-0.15;60.38
67555;HTU21D;54385;53.516;49.456;2023-03-19T03:26:36;-0.16;60.94
67555;HTU21D;54385;53.516;49.456;2023-03-19T03:29:05;-0.22;60.51
67555;HTU21D;54385;53.516;49.456;2023-03-19T03:31:32;-0.22;60.86
67555;HTU21D;54385;53.516;49.456;2023-03-19T03:34:00;-0.15;60.52
67555;HTU21D;54385;53.516;49.456;2023-03-19T03:36:27;-0.19;60.69
67555;HTU21D;54385;53.516;49.456;2023-03-19T03:38:54;-0.21;60.73
67555;HTU21D;54385;53.516;49.456;2023-03-19T03:41:21;-0.16;60.74
67555;HTU21D;54385;53.516;49.456;2023-03-19T03:43:47;-0.15;60.57
67555;HTU21D;54385;53.516;49.456;2023-03-19T03:46:14;-0.11;59.86
67555;HTU21D;54385;53.516;49.456;2023-03-19T03:48:40;-0.10;60.18
67555;HTU21D;54385;53.516;49.456;2023-03-19T03:51:06;-0.09;59.78
67555;HTU21D;54385;53.516;49.456;2023-03-19T03:53:33;-0.03;59.09
67555;HTU21D;54385;53.516;49.456;2023-03-19T03:55:59;0.02;59.63
67555;HTU21D;54385;53.516;49.456;2023-03-19T03:58:26;0.06;58.92
67555;HTU21D;54385;53.516;49.456;2023-03-19T04:00:53;0.10;59.22
67555;HTU21D;54385;53.516;49.456;2023-03-19T04:03:20;0.07;58.03
67555;HTU21D;54385;53.516;49.456;2023-03-19T04:05:47;0.04;58.54
67555;HTU21D;54385;53.516;49.456;2023-03-19T04:08:13;0.03;58.51
67555;HTU21D;54385;53.516;49.456;2023-03-19T04:10:41;0.01;58.13
67555;HTU21D;54385;53.516;49.456;2023-03-19T04:13:08;-0.02;58.38
67555;HTU21D;54385;53.516;49.456;2023-03-19T04:15:35;-0.03;58.92
67555;HTU21D;54385;53.516;49.456;2023-03-19T04:18:02;-0.08;58.37
67555;HTU21D;54385;53.516;49.456;2023-03-19T04:20:29;-0.01;58.32
67555;HTU21D;54385;53.516;49.456;2023-03-19T04:22:55;0.05;58.61
67555;HTU21D;54385;53.516;49.456;2023-03-19T04:25:21;0.03;58.03
67555;HTU21D;54385;53.516;49.456;2023-03-19T04:27:48;0.06;57.90
67555;HTU21D;54385;53.516;49.456;2023-03-19T04:30:14;0.12;57.57
67555;HTU21D;54385;53.516;49.456;2023-03-19T04:32:41;0.23;57.48
67555;HTU21D;54385;53.516;49.456;2023-03-19T04:35:09;0.25;57.93
67555;HTU21D;54385;53.516;49.456;2023-03-19T04:37:35;0.23;57.11
67555;HTU21D;54385;53.516;49.456;2023-03-19T04:40:03;0.25;57.19
67555;HTU21D;54385;53.516;49.456;2023-03-19T04:42:29;0.27;57.79
67555;HTU21D;54385;53.516;49.456;2023-03-19T04:44:55;0.28;57.03
67555;HTU21D;54385;53.516;49.456;2023-03-19T04:47:22;0.35;57.26
67555;HTU21D;54385;53.516;49.456;2023-03-19T04:49:48;0.45;57.16
67555;HTU21D;54385;53.516;49.456;2023-03-19T04:52:15;0.54;56.29
67555;HTU21D;54385;53.516;49.456;2023-03-19T04:54:41;0.61;56.98
67555;HTU21D;54385;53.516;49.456;2023-03-19T04:57:08;0.67;57.25
67555;HTU21D;54385;53.516;49.456;2023-03-19T04:59:34;0.71;57.67
67555;HTU21D;54385;53.516;49.456;2023-03-19T05:02:01;0.76;57.94
67555;HTU21D;54385;53.516;49.456;2023-03-19T05:04:27;0.88;56.82
67555;HTU21D;54385;53.516;49.456;2023-03-19T05:06:54;0.91;56.03
67555;HTU21D;54385;53.516;49.456;2023-03-19T05:09:22;1.05;56.50
67555;HTU21D;54385;53.516;49.456;2023-03-19T05:11:48;1.05;56.56
67555;HTU21D;54385;53.516;49.456;2023-03-19T05:14:14;1.09;57.26
67555;HTU21D;54385;53.516;49.456;2023-03-19T05:16:41;1.18;57.03
67555;HTU21D;54385;53.516;49.456;2023-03-19T05:19:07;1.22;56.15
67555;HTU21D;54385;53.516;49.456;2023-03-19T05:21:33;1.24;55.97
67555;HTU21D;54385;53.516;49.456;2023-03-19T05:24:00;1.16;56.17
67555;HTU21D;54385;53.516;49.456;2023-03-19T05:26:26;1.11;56.04
67555;HTU21D;54385;53.516;49.456;2023-03-19T05:28:52;1.19;56.22
67555;HTU21D;54385;53.516;49.456;2023-03-19T05:31:19;1.29;55.97
67555;HTU21D;54385;53.516;49.456;2023-03-19T05:33:45;1.36;56.43
67555;HTU21D;54385;53.516;49.456;2023-03-19T05:36:12;1.35;56.02
67555;HTU21D;54385;53.516;49.456;2023-03-19T05:38:39;1.42;55.90
67555;HTU21D;54385;53.516;49.456;2023-03-19T05:41:05;1.57;55.58
67555;HTU21D;54385;53.516;49.456;2023-03-19T05:43:32;1.52;55.81
67555;HTU21D;54385;53.516;49.456;2023-03-19T05:45:58;1.68;56.16
67555;HTU21D;54385;53.516;49.456;2023-03-19T05:48:25;1.78;55.89
67555;HTU21D;54385;53.516;49.456;2023-03-19T05:50:51;1.85;55.90
67555;HTU21D;54385;53.516;49.456;2023-03-19T05:53:19;1.93;55.72
67555;HTU21D;54385;53.516;49.456;2023-03-19T05:55:46;1.98;55.13
67555;HTU21D;54385;53.516;49.456;2023-03-19T05:58:13;2.06;55.71
67555;HTU21D;54385;53.516;49.456;2023-03-19T06:00:39;2.10;54.76
67555;HTU21D;54385;53.516;49.456;2023-03-19T06:03:07;2.17;53.59
67555;HTU21D;54385;53.516;49.456;2023-03-19T06:05:34;2.14;54.55
67555;HTU21D;54385;53.516;49.456;2023-03-19T06:08:00;2.27;54.75
67555;HTU21D;54385;53.516;49.456;2023-03-19T06:10:27;2.35;54.43
67555;HTU21D;54385;53.516;49.456;2023-03-19T06:12:53;2.35;54.23
67555;HTU21D;54385;53.516;49.456;2023-03-19T06:15:20;2.39;54.14
67555;HTU21D;54385;53.516;49.456;2023-03-19T06:17:46;2.50;54.77
67555;HTU21D;54385;53.516;49.456;2023-03-19T06:20:13;2.53;54.54
67555;HTU21D;54385;53.516;49.456;2023-03-19T06:22:40;2.53;54.92
67555;HTU21D;54385;53.516;49.456;2023-03-19T06:25:11;2.69;54.39
67555;HTU21D;54385;53.516;49.456;2023-03-19T06:27:39;2.72;54.72
67555;HTU21D;54385;53.516;49.456;2023-03-19T06:30:06;2.74;54.08
67555;HTU21D;54385;53.516;49.456;2023-03-19T06:32:33;2.61;54.55
67555;HTU21D;54385;53.516;49.456;2023-03-19T06:35:00;2.60;55.02
67555;HTU21D;54385;53.516;49.456;2023-03-19T06:37:27;2.65;55.22
67555;HTU21D;54385;53.516;49.456;2023-03-19T06:39:53;2.72;54.04
67555;HTU21D;54385;53.516;49.456;2023-03-19T06:42:20;2.80;54.45
67555;HTU21D;54385;53.516;49.456;2023-03-19T06:44:47;2.87;54.49
67555;HTU21D;54385;53.516;49.456;2023-03-19T06:47:14;2.85;54.22
67555;HTU21D;54385;53.516;49.456;2023-03-19T06:49:44;2.84;54.24
67555;HTU21D;54385;53.516;49.456;2023-03-19T06:52:13;2.95;54.43
67555;HTU21D;54385;53.516;49.456;2023-03-19T06:54:41;3.04;53.57
67555;HTU21D;54385;53.516;49.456;2023-03-19T06:57:07;3.16;54.65
67555;HTU21D;54385;53.516;49.456;2023-03-19T06:59:33;3.16;53.71
67555;HTU21D;54385;53.516;49.456;2023-03-19T07:02:00;3.19;54.52
67555;HTU21D;54385;53.516;49.456;2023-03-19T07:04:29;3.29;54.01
67555;HTU21D;54385;53.516;49.456;2023-03-19T07:06:55;3.31;53.81
67555;HTU21D;54385;53.516;49.456;2023-03-19T07:09:22;3.35;54.75
67555;HTU21D;54385;53.516;49.456;2023-03-19T07:11:48;3.27;53.75
67555;HTU21D;54385;53.516;49.456;2023-03-19T07:14:15;3.24;55.46
67555;HTU21D;54385;53.516;49.456;2023-03-19T07:16:42;3.26;55.77
67555;HTU21D;54385;53.516;49.456;2023-03-19T07:19:08;3.42;56.68
67555;HTU21D;54385;53.516;49.456;2023-03-19T07:21:34;3.53;56.19
67555;HTU21D;54385;53.516;49.456;2023-03-19T07:24:01;3.58;57.13
67555;HTU21D;54385;53.516;49.456;2023-03-19T07:26:27;3.56;55.79
67555;HTU21D;54385;53.516;49.456;2023-03-19T07:28:54;3.60;56.26
67555;HTU21D;54385;53.516;49.456;2023-03-19T07:31:20;3.64;55.81
67555;HTU21D;54385;53.516;49.456;2023-03-19T07:33:47;3.74;55.82
67555;HTU21D;54385;53.516;49.456;2023-03-19T07:36:13;3.77;56.00
67555;HTU21D;54385;53.516;49.456;2023-03-19T07:38:40;3.84;56.39
67555;HTU21D;54385;53.516;49.456;2023-03-19T07:41:06;3.78;54.92
67555;HTU21D;54385;53.516;49.456;2023-03-19T07:43:32;3.83;54.70
67555;HTU21D;54385;53.516;49.456;2023-03-19T07:45:59;3.94;57.29
67555;HTU21D;54385;53.516;49.456;2023-03-19T07:48:28;3.94;56.19
67555;HTU21D;54385;53.516;49.456;2023-03-19T07:50:55;3.98;56.30
67555;HTU21D;54385;53.516;49.456;2023-03-19T07:53:21;4.02;56.10
67555;HTU21D;54385;53.516;49.456;2023-03-19T07:55:48;4.13;56.64
67555;HTU21D;54385;53.516;49.456;2023-03-19T07:58:14;4.07;56.03
67555;HTU21D;54385;53.516;49.456;2023-03-19T08:00:41;4.15;57.87
67555;HTU21D;54385;53.516;49.456;2023-03-19T08:03:09;4.19;57.40
67555;HTU21D;54385;53.516;49.456;2023-03-19T08:05:36;4.24;57.36
67555;HTU21D;54385;53.516;49.456;2023-03-19T08:08:02;4.26;59.14
67555;HTU21D;54385;53.516;49.456;2023-03-19T08:10:29;4.30;57.09
67555;HTU21D;54385;53.516;49.456;2023-03-19T08:12:55;4.31;57.44
67555;HTU21D;54385;53.516;49.456;2023-03-19T08:15:21;4.36;57.93
67555;HTU21D;54385;53.516;49.456;2023-03-19T08:17:48;4.39;57.58
67555;HTU21D;54385;53.516;49.456;2023-03-19T08:20:15;4.42;56.13
67555;HTU21D;54385;53.516;49.456;2023-03-19T08:22:41;4.58;58.64
67555;HTU21D;54385;53.516;49.456;2023-03-19T08:25:09;4.66;58.09
67555;HTU21D;54385;53.516;49.456;2023-03-19T08:27:35;4.67;57.35
67555;HTU21D;54385;53.516;49.456;2023-03-19T08:30:03;4.86;58.29
67555;HTU21D;54385;53.516;49.456;2023-03-19T08:32:30;5.17;58.16
67555;HTU21D;54385;53.516;49.456;2023-03-19T08:34:56;5.43;56.58
67555;HTU21D;54385;53.516;49.456;2023-03-19T08:37:23;5.75;55.39
67555;HTU21D;54385;53.516;49.456;2023-03-19T08:39:49;5.87;55.64
67555;HTU21D;54385;53.516;49.456;2023-03-19T08:42:20;6.05;57.13
67555;HTU21D;54385;53.516;49.456;2023-03-19T08:44:48;6.16;56.95
67555;HTU21D;54385;53.516;49.456;2023-03-19T08:47:15;6.21;56.97
67555;HTU21D;54385;53.516;49.456;2023-03-19T08:49:41;6.22;55.96
67555;HTU21D;54385;53.516;49.456;2023-03-19T08:52:08;6.16;56.60
67555;HTU21D;54385;53.516;49.456;2023-03-19T08:54:35;6.27;56.43
67555;HTU21D;54385;53.516;49.456;2023-03-19T08:57:01;6.41;55.47
67555;HTU21D;54385;53.516;49.456;2023-03-19T08:59:28;6.40;52.19
67555;HTU21D;54385;53.516;49.456;2023-03-19T09:01:54;6.45;53.49
67555;HTU21D;54385;53.516;49.456;2023-03-19T09:04:20;6.40;53.49
67555;HTU21D;54385;53.516;49.456;2023-03-19T09:06:47;6.51;53.95
67555;HTU21D;54385;53.516;49.456;2023-03-19T09:09:21;6.55;54.29
67555;HTU21D;54385;53.516;49.456;2023-03-19T09:11:48;6.48;54.70
67555;HTU21D;54385;53.516;49.456;2023-03-19T09:14:15;6.54;53.94
67555;HTU21D;54385;53.516;49.456;2023-03-19T09:16:42;6.64;53.68
67555;HTU21D;54385;53.516;49.456;2023-03-19T09:19:08;6.72;53.83
67555;HTU21D;54385;53.516;49.456;2023-03-19T09:21:35;6.65;54.17
67555;HTU21D;54385;53.516;49.456;2023-03-19T09:24:02;6.69;54.17
67555;HTU21D;54385;53.516;49.456;2023-03-19T09:26:29;6.70;53.24
67555;HTU21D;54385;53.516;49.456;2023-03-19T09:28:56;6.93;52.49
67555;HTU21D;54385;53.516;49.456;2023-03-19T09:31:23;6.96;53.27
67555;HTU21D;54385;53.516;49.456;2023-03-19T09:33:50;6.99;53.06
67555;HTU21D;54385;53.516;49.456;2023-03-19T09:36:16;6.98;53.00
67555;HTU21D;54385;53.516;49.456;2023-03-19T09:38:42;6.98;53.39
67555;HTU21D;54385;53.516;49.456;2023-03-19T09:41:15;6.95;53.63
67555;HTU21D;54385;53.516;49.456;2023-03-19T09:46:24;6.51;52.91
67555;HTU21D;54385;53.516;49.456;2023-03-19T09:48:59;6.29;53.10
67555;HTU21D;54385;53.516;49.456;2023-03-19T09:51:43;6.29;54.46
67555;HTU21D;54385;53.516;49.456;2023-03-19T09:56:56;6.42;54.47
67555;HTU21D;54385;53.516;49.456;2023-03-19T09:59:23;6.49;54.62
67555;HTU21D;54385;53.516;49.456;2023-03-19T10:05:14;6.71;52.01
67555;HTU21D;54385;53.516;49.456;2023-03-19T10:14:07;7.56;51.33
67555;HTU21D;54385;53.516;49.456;2023-03-19T10:16:40;7.91;51.62
67555;HTU21D;54385;53.516;49.456;2023-03-19T10:19:15;8.23;50.39
67555;HTU21D;54385;53.516;49.456;2023-03-19T10:21:49;8.67;49.86
67555;HTU21D;54385;53.516;49.456;2023-03-19T10:24:28;8.81;50.23
67555;HTU21D;54385;53.516;49.456;2023-03-19T10:27:18;9.31;46.44
67555;HTU21D;54385;53.516;49.456;2023-03-19T10:29:46;9.77;48.02
67555;HTU21D;54385;53.516;49.456;2023-03-19T10:32:20;9.81;47.97
67555;HTU21D;54385;53.516;49.456;2023-03-19T10:34:53;9.89;48.47
67555;HTU21D;54385;53.516;49.456;2023-03-19T10:37:26;10.01;47.43
67555;HTU21D;54385;53.516;49.456;2023-03-19T10:39:59;10.07;43.62
67555;HTU21D;54385;53.516;49.456;2023-03-19T10:45:27;10.30;45.50
67555;HTU21D;54385;53.516;49.456;2023-03-19T10:47:55;10.54;45.55
67555;HTU21D;54385;53.516;49.456;2023-03-19T10:50:36;10.81;44.45
67555;HTU21D;54385;53.516;49.456;2023-03-19T10:55:45;11.24;44.32
67555;HTU21D;54385;53.516;49.456;2023-03-19T10:58:18;10.96;41.94
67555;HTU21D;54385;53.516;49.456;2023-03-19T11:00:49;11.20;44.27
67555;HTU21D;54385;53.516;49.456;2023-03-19T11:03:36;11.25;43.39
67555;HTU21D;54385;53.516;49.456;2023-03-19T11:08:42;11.30;43.48
67555;HTU21D;54385;53.516;49.456;2023-03-19T11:11:32;11.32;41.74
67555;HTU21D;54385;53.516;49.456;2023-03-19T11:16:54;11.85;41.56
67555;HTU21D;54385;53.516;49.456;2023-03-19T11:19:27;12.11;41.63
67555;HTU21D;54385;53.516;49.456;2023-03-19T11:22:01;12.08;39.81
67555;HTU21D;54385;53.516;49.456;2023-03-19T11:24:31;12.17;41.19
67555;HTU21D;54385;53.516;49.456;2023-03-19T11:26:59;12.27;43.10
67555;HTU21D;54385;53.516;49.456;2023-03-19T11:29:27;12.52;41.68
67555;HTU21D;54385;53.516;49.456;2023-03-19T11:32:24;12.82;38.80
67555;HTU21D;54385;53.516;49.456;2023-03-19T11:37:49;12.69;39.60
67555;HTU21D;54385;53.516;49.456;2023-03-19T11:40:29;12.76;41.89
67555;HTU21D;54385;53.516;49.456;2023-03-19T11:49:21;13.34;37.28
67555;HTU21D;54385;53.516;49.456;2023-03-19T11:52:07;13.41;38.91
67555;HTU21D;54385;53.516;49.456;2023-03-19T11:57:48;13.23;39.88
67555;HTU21D;54385;53.516;49.456;2023-03-19T12:06:00;13.15;37.88
67555;HTU21D;54385;53.516;49.456;2023-03-19T12:08:43;13.32;38.94
67555;HTU21D;54385;53.516;49.456;2023-03-19T12:11:31;13.36;38.48
67555;HTU21D;54385;53.516;49.456;2023-03-19T12:16:58;13.68;39.47
67555;HTU21D;54385;53.516;49.456;2023-03-19T12:19:51;13.82;39.33
67555;HTU21D;54385;53.516;49.456;2023-03-19T12:33:47;14.11;38.87
67555;HTU21D;54385;53.516;49.456;2023-03-19T12:39:13;13.56;40.09
67555;HTU21D;54385;53.516;49.456;2023-03-19T12:41:43;13.63;39.98
67555;HTU21D;54385;53.516;49.456;2023-03-19T12:44:32;13.39;39.55
67555;HTU21D;54385;53.516;49.456;2023-03-19T12:47:16;13.19;40.81
67555;HTU21D;54385;53.516;49.456;2023-03-19T12:49:57;12.90;40.99
67555;HTU21D;54385;53.516;49.456;2023-03-19T12:52:34;12.67;41.31
67555;HTU21D;54385;53.516;49.456;2023-03-19T12:57:59;12.46;41.85
67555;HTU21D;54385;53.516;49.456;2023-03-19T13:03:36;11.41;43.03
67555;HTU21D;54385;53.516;49.456;2023-03-19T13:06:37;10.60;46.27
67555;HTU21D;54385;53.516;49.456;2023-03-19T13:09:23;10.44;46.74
67555;HTU21D;54385;53.516;49.456;2023-03-19T13:12:00;10.06;47.90
67555;HTU21D;54385;53.516;49.456;2023-03-19T13:14:57;9.45;49.82
67555;HTU21D;54385;53.516;49.456;2023-03-19T13:17:54;8.94;51.93
67555;HTU21D;54385;53.516;49.456;2023-03-19T13:23:13;8.58;52.64
67555;HTU21D;54385;53.516;49.456;2023-03-19T13:25:44;8.45;53.10
67555;HTU21D;54385;53.516;49.456;2023-03-19T13:28:30;8.16;54.05
67555;HTU21D;54385;53.516;49.456;2023-03-19T13:30:59;7.70;55.50
67555;HTU21D;54385;53.516;49.456;2023-03-19T13:33:25;7.57;56.19
67555;HTU21D;54385;53.516;49.456;2023-03-19T13:35:53;7.48;56.48
67555;HTU21D;54385;53.516;49.456;2023-03-19T13:38:32;7.46;57.22
67555;HTU21D;54385;53.516;49.456;2023-03-19T13:41:00;7.49;57.04
67555;HTU21D;54385;53.516;49.456;2023-03-19T14:01:54;6.08;62.49
67555;HTU21D;54385;53.516;49.456;2023-03-19T14:04:25;6.12;63.01
67555;HTU21D;54385;53.516;49.456;2023-03-19T14:07:02;6.01;62.76
67555;HTU21D;54385;53.516;49.456;2023-03-19T14:09:46;5.77;63.49
67555;HTU21D;54385;53.516;49.456;2023-03-19T14:14:46;5.60;64.72
67555;HTU21D;54385;53.516;49.456;2023-03-19T14:17:35;5.46;65.09
67555;HTU21D;54385;53.516;49.456;2023-03-19T14:23:02;5.48;65.19
67555;HTU21D;54385;53.516;49.456;2023-03-19T14:29:00;5.61;65.40
67555;HTU21D;54385;53.516;49.456;2023-03-19T14:31:48;5.55;65.43
67555;HTU21D;54385;53.516;49.456;2023-03-19T14:34:53;5.50;65.63
67555;HTU21D;54385;53.516;49.456;2023-03-19T14:37:28;5.49;65.96
67555;HTU21D;54385;53.516;49.456;2023-03-19T14:40:06;5.45;65.94
67555;HTU21D;54385;53.516;49.456;2023-03-19T14:56:25;5.04;67.97
67555;HTU21D;54385;53.516;49.456;2023-03-19T14:58:53;4.96;67.82
67555;HTU21D;54385;53.516;49.456;2023-03-19T15:01:23;4.95;68.26
67555;HTU21D;54385;53.516;49.456;2023-03-19T15:04:03;5.03;67.90
67555;HTU21D;54385;53.516;49.456;2023-03-19T15:06:36;5.15;67.76
67555;HTU21D;54385;53.516;49.456;2023-03-19T15:09:08;5.21;67.30
67555;HTU21D;54385;53.516;49.456;2023-03-19T15:11:59;5.04;67.65
67555;HTU21D;54385;53.516;49.456;2023-03-19T15:19:26;4.87;68.18
67555;HTU21D;54385;53.516;49.456;2023-03-19T15:22:48;4.79;68.60
67555;HTU21D;54385;53.516;49.456;2023-03-19T15:24:49;4.80;68.37
67555;HTU21D;54385;53.516;49.456;2023-03-19T15:27:26;4.80;68.63
67555;HTU21D;54385;53.516;49.456;2023-03-19T15:29:53;4.77;68.25
67555;HTU21D;54385;53.516;49.456;2023-03-19T15:32:39;4.77;68.48
67555;HTU21D;54385;53.516;49.456;2023-03-19T15:35:08;4.75;68.46
67555;HTU21D;54385;53.516;49.456;2023-03-19T15:37:40;4.64;68.94
67555;HTU21D;54385;53.516;49.456;2023-03-19T15:40:13;4.59;68.98
67555;HTU21D;54385;53.516;49.456;2023-03-19T15:42:42;4.59;68.94
67555;HTU21D;54385;53.516;49.456;2023-03-19T15:45:10;4.43;69.44
67555;HTU21D;54385;53.516;49.456;2023-03-19T15:47:47;4.41;69.68
67555;HTU21D;54385;53.516;49.456;2023-03-19T15:50:17;4.45;69.64
67555;HTU21D;54385;53.516;49.456;2023-03-19T15:52:49;4.47;69.51
67555;HTU21D;54385;53.516;49.456;2023-03-19T15:55:18;4.41;69.62
67555;HTU21D;54385;53.516;49.456;2023-03-19T15:57:46;4.34;69.90
67555;HTU21D;54385;53.516;49.456;2023-03-19T16:00:14;4.29;70.12
67555;HTU21D;54385;53.516;49.456;2023-03-19T16:02:46;4.35;70.09
67555;HTU21D;54385;53.516;49.456;2023-03-19T16:05:30;4.24;70.05
67555;HTU21D;54385;53.516;49.456;2023-03-19T16:08:02;4.24;70.36
67555;HTU21D;54385;53.516;49.456;2023-03-19T16:10:43;4.30;70.28
67555;HTU21D;54385;53.516;49.456;2023-03-19T16:13:37;4.43;69.84
67555;HTU21D;54385;53.516;49.456;2023-03-19T16:16:14;4.51;69.70
67555;HTU21D;54385;53.516;49.456;2023-03-19T16:18:51;4.47;69.74
67555;HTU21D;54385;53.516;49.456;2023-03-19T16:21:26;4.50;69.62
67555;HTU21D;54385;53.516;49.456;2023-03-19T16:23:58;4.58;69.45
67555;HTU21D;54385;53.516;49.456;2023-03-19T16:26:36;4.63;69.12
67555;HTU21D;54385;53.516;49.456;2023-03-19T16:31:31;4.76;68.65
67555;HTU21D;54385;53.516;49.456;2023-03-19T16:37:26;4.69;68.69
67555;HTU21D;54385;53.516;49.456;2023-03-19T16:39:58;4.56;69.03
67555;HTU21D;54385;53.516;49.456;2023-03-19T16:47:44;4.62;69.26
67555;HTU21D;54385;53.516;49.456;2023-03-19T16:50:11;4.60;69.07
67555;HTU21D;54385;53.516;49.456;2023-03-19T16:52:39;4.62;69.29
67555;HTU21D;54385;53.516;49.456;2023-03-19T16:55:17;4.48;69.55
67555;HTU21D;54385;53.516;49.456;2023-03-19T16:57:44;4.43;69.87
67555;HTU21D;54385;53.516;49.456;2023-03-19T17:00:12;4.37;70.22
67555;HTU21D;54385;53.516;49.456;2023-03-19T17:02:39;4.43;70.05
67555;HTU21D;54385;53.516;49.456;2023-03-19T17:05:13;4.35;69.87
67555;HTU21D;54385;53.516;49.456;2023-03-19T17:07:40;4.32;70.10
67555;HTU21D;54385;53.516;49.456;2023-03-19T17:10:26;4.18;70.61
67555;HTU21D;54385;53.516;49.456;2023-03-19T17:12:54;4.18;70.55
67555;HTU21D;54385;53.516;49.456;2023-03-19T17:17:56;4.18;70.75
67555;HTU21D;54385;53.516;49.456;2023-03-19T17:20:36;4.07;70.85
67555;HTU21D;54385;53.516;49.456;2023-03-19T17:23:13;4.10;70.61
67555;HTU21D;54385;53.516;49.456;2023-03-19T17:25:39;4.01;70.72
67555;HTU21D;54385;53.516;49.456;2023-03-19T17:28:05;4.02;71.13
67555;HTU21D;54385;53.516;49.456;2023-03-19T17:30:32;4.06;71.04
67555;HTU21D;54385;53.516;49.456;2023-03-19T17:32:59;4.08;70.77
67555;HTU21D;54385;53.516;49.456;2023-03-19T17:35:25;4.08;70.74
67555;HTU21D;54385;53.516;49.456;2023-03-19T17:37:52;4.00;70.96
67555;HTU21D;54385;53.516;49.456;2023-03-19T17:40:26;4.00;71.03
67555;HTU21D;54385;53.516;49.456;2023-03-19T17:42:53;3.94;71.32
67555;HTU21D;54385;53.516;49.456;2023-03-19T17:45:24;3.95;71.27